Time;durP1;ratioP1;P1;durP2;ratioP2;P2;SDS_P1;SDS_P2;PMS_P1;PMS_P2;Temp;Humidity;BMP_temperature;BMP_pressure;BME280_temperature;BME280_humidity;BME280_pressure;Samples;Min_cycle;Max_cycle;Signal;HPM_P1;HPM_P2
2023/10/22 00:01:11;;;;;;;8.32;3.00;;;33.50;41.80;;;;;;4942413;29;20129;-68
2023/10/22 00:03:39;;;;;;;12.45;2.75;;;33.70;41.20;;;;;;4950245;29;20035;-68
2023/10/22 00:06:06;;;;;;;10.68;2.65;;;34.10;40.10;;;;;;4951713;28;20358;-68
2023/10/22 00:08:34;;;;;;;6.05;2.00;;;33.60;41.60;;;;;;4950192;29;20028;-68
2023/10/22 00:11:01;;;;;;;9.05;2.92;;;33.90;41.00;;;;;;4950756;29;20489;-69
2023/10/22 00:13:30;;;;;;;10.32;2.42;;;34.40;40.80;;;;;;4950173;29;20079;-69
2023/10/22 00:15:58;;;;;;;7.95;2.35;;;34.60;38.10;;;;;;4953079;28;20058;-68
2023/10/22 00:18:25;;;;;;;8.43;2.42;;;34.70;37.80;;;;;;4954419;29;20054;-69
2023/10/22 00:20:53;;;;;;;7.97;2.22;;;34.30;38.70;;;;;;4938908;28;20382;-69
2023/10/22 00:23:20;;;;;;;9.85;2.22;;;34.30;39.20;;;;;;4936758;28;20031;-69
2023/10/22 00:25:48;;;;;;;7.05;2.33;;;34.40;37.80;;;;;;4947515;28;20081;-68
2023/10/22 00:28:15;;;;;;;6.47;1.83;;;34.40;37.10;;;;;;4951613;29;20035;-68
2023/10/22 00:30:42;;;;;;;6.28;2.03;;;33.80;37.00;;;;;;4949189;29;20081;-69
2023/10/22 00:33:10;;;;;;;7.20;2.53;;;33.70;37.20;;;;;;4951485;28;20050;-68
2023/10/22 00:35:38;;;;;;;6.90;2.33;;;33.90;37.10;;;;;;4946663;29;20019;-69
2023/10/22 00:38:05;;;;;;;5.60;2.05;;;33.80;35.60;;;;;;4949684;28;20439;-68
2023/10/22 00:40:32;;;;;;;7.10;2.08;;;33.20;37.40;;;;;;4950256;28;20031;-68
2023/10/22 00:43:05;;;;;;;7.43;2.30;;;33.60;39.00;;;;;;4951360;29;20028;-69
2023/10/22 00:45:38;;;;;;;5.28;2.00;;;34.10;36.90;;;;;;4946635;29;20035;-68
2023/10/22 00:48:09;;;;;;;6.22;1.50;;;34.30;35.10;;;;;;4951864;29;20110;-70
2023/10/22 00:50:41;;;;;;;6.25;1.40;;;33.70;33.50;;;;;;4950365;29;20067;-68
2023/10/22 00:53:09;;;;;;;5.82;1.30;;;33.10;32.20;;;;;;4951972;29;20027;-69
2023/10/22 00:55:40;;;;;;;7.28;1.38;;;32.70;31.60;;;;;;4939365;28;20438;-68
2023/10/22 00:58:08;;;;;;;5.53;1.63;;;32.80;31.60;;;;;;4946487;28;20476;-69
2023/10/22 01:00:36;;;;;;;7.55;2.20;;;33.20;36.60;;;;;;4949922;29;20035;-69
2023/10/22 01:03:04;;;;;;;8.50;1.50;;;33.80;37.10;;;;;;4950478;29;20027;-69
2023/10/22 01:05:36;;;;;;;6.20;1.10;;;34.00;31.40;;;;;;4948228;29;20023;-69
2023/10/22 01:08:06;;;;;;;5.63;1.38;;;33.40;31.70;;;;;;4948852;29;20028;-69
2023/10/22 01:10:34;;;;;;;6.78;1.33;;;33.40;30.80;;;;;;4951259;28;20405;-68
2023/10/22 01:13:03;;;;;;;2.88;1.00;;;32.90;31.30;;;;;;4944477;29;20098;-69
2023/10/22 01:15:31;;;;;;;7.57;1.50;;;32.80;30.60;;;;;;4952880;28;20110;-68
2023/10/22 01:17:58;;;;;;;6.40;1.27;;;33.00;30.50;;;;;;4951887;28;20538;-71
2023/10/22 01:20:25;;;;;;;5.72;1.10;;;32.70;30.40;;;;;;4952635;29;20291;-69
2023/10/22 01:22:53;;;;;;;6.93;1.30;;;33.00;31.40;;;;;;4951785;29;20039;-70
2023/10/22 01:25:20;;;;;;;6.20;1.50;;;33.20;30.10;;;;;;4952963;29;20495;-70
2023/10/22 01:27:47;;;;;;;9.40;1.52;;;32.70;30.60;;;;;;4949843;29;20462;-69
2023/10/22 01:30:15;;;;;;;6.00;1.35;;;32.90;30.60;;;;;;4950936;28;20055;-69
2023/10/22 01:32:42;;;;;;;4.50;1.48;;;33.10;30.10;;;;;;4950594;28;20101;-72
2023/10/22 01:35:12;;;;;;;4.75;0.88;;;33.10;30.00;;;;;;4946369;29;20039;-69
2023/10/22 01:37:39;;;;;;;6.53;1.25;;;33.40;30.20;;;;;;4939116;29;20526;-69
2023/10/22 01:40:07;;;;;;;3.85;0.77;;;33.80;30.70;;;;;;4946200;28;20060;-70
2023/10/22 01:42:34;;;;;;;3.17;1.00;;;33.90;29.30;;;;;;4949983;28;20566;-69
2023/10/22 01:45:02;;;;;;;3.75;0.98;;;33.90;29.00;;;;;;4929515;28;20032;-68
2023/10/22 01:47:29;;;;;;;1.73;0.68;;;33.80;29.00;;;;;;4948699;28;20536;-69
2023/10/22 01:49:57;;;;;;;3.65;0.88;;;33.90;28.60;;;;;;4948668;28;20070;-70
2023/10/22 01:52:25;;;;;;;3.95;0.90;;;34.10;28.40;;;;;;4952115;28;20079;-68
2023/10/22 01:54:52;;;;;;;5.60;0.90;;;34.10;28.60;;;;;;4952962;29;20046;-70
2023/10/22 01:57:19;;;;;;;3.55;0.95;;;34.10;27.70;;;;;;4950570;29;20508;-70
2023/10/22 01:59:47;;;;;;;5.28;1.08;;;34.10;27.40;;;;;;4953332;28;20035;-70
2023/10/22 02:02:15;;;;;;;4.70;0.90;;;34.00;26.50;;;;;;4948321;29;20082;-69
2023/10/22 02:04:42;;;;;;;6.07;0.90;;;33.90;26.40;;;;;;4952858;28;20040;-71
2023/10/22 02:07:11;;;;;;;3.70;0.70;;;33.90;26.10;;;;;;4951143;28;20483;-69
2023/10/22 02:09:38;;;;;;;4.60;0.68;;;33.70;26.30;;;;;;4955926;29;20054;-70
2023/10/22 02:12:08;;;;;;;4.75;0.73;;;33.50;25.80;;;;;;4955987;29;20035;-70
2023/10/22 02:14:35;;;;;;;5.80;0.85;;;33.00;26.10;;;;;;4956360;29;20027;-69
2023/10/22 02:17:03;;;;;;;6.13;0.82;;;33.10;26.20;;;;;;4955536;29;20031;-69
2023/10/22 02:19:30;;;;;;;2.40;0.75;;;33.40;25.70;;;;;;4944392;28;20031;-70
2023/10/22 02:21:57;;;;;;;5.40;0.75;;;33.70;25.70;;;;;;4937090;29;20358;-69
2023/10/22 02:24:25;;;;;;;3.70;0.60;;;33.80;25.50;;;;;;4957026;28;20023;-70
2023/10/22 02:26:52;;;;;;;4.43;0.77;;;33.20;25.60;;;;;;4971082;28;20035;-69
2023/10/22 02:29:19;;;;;;;6.10;0.70;;;33.10;25.80;;;;;;4955974;29;20556;-69
2023/10/22 02:31:47;;;;;;;5.25;0.80;;;33.20;25.90;;;;;;4956060;28;20031;-69
2023/10/22 02:34:14;;;;;;;5.18;0.68;;;33.40;25.90;;;;;;4956140;29;20058;-69
2023/10/22 02:36:43;;;;;;;4.07;0.70;;;33.30;25.70;;;;;;4942359;29;20113;-69
2023/10/22 02:39:11;;;;;;;3.00;0.75;;;33.00;25.30;;;;;;4938530;28;20460;-69
2023/10/22 02:41:39;;;;;;;2.38;0.70;;;32.80;25.70;;;;;;4972398;28;20472;-69
2023/10/22 02:44:06;;;;;;;2.65;0.63;;;33.10;25.40;;;;;;4975257;28;20063;-69
2023/10/22 02:46:33;;;;;;;6.43;0.77;;;33.20;25.00;;;;;;4975103;28;20452;-69
2023/10/22 02:49:01;;;;;;;2.78;1.02;;;33.10;25.30;;;;;;4956969;28;20555;-69
2023/10/22 02:51:28;;;;;;;2.22;0.40;;;33.50;25.70;;;;;;4952813;29;20041;-69
2023/10/22 02:53:56;;;;;;;4.25;0.40;;;33.60;24.20;;;;;;4954682;28;20031;-69
2023/10/22 02:56:24;;;;;;;5.60;0.95;;;33.80;24.00;;;;;;4957776;28;20431;-69
2023/10/22 02:58:51;;;;;;;3.95;0.30;;;33.60;23.80;;;;;;4956470;28;20039;-69
2023/10/22 03:01:18;;;;;;;3.53;0.40;;;33.70;24.20;;;;;;4955414;29;20031;-69
2023/10/22 03:03:46;;;;;;;5.45;0.57;;;33.80;24.10;;;;;;4969087;28;20121;-69
2023/10/22 03:06:13;;;;;;;4.97;0.63;;;33.40;23.80;;;;;;4974681;28;20353;-69
2023/10/22 03:08:42;;;;;;;2.97;0.50;;;33.30;24.60;;;;;;4968690;28;20031;-69
2023/10/22 03:11:19;;;;;;;3.80;0.52;;;33.70;25.00;;;;;;4948333;29;20046;-70
2023/10/22 03:13:49;;;;;;;3.75;0.50;;;33.80;24.70;;;;;;4960552;28;20042;-69
2023/10/22 03:16:17;;;;;;;3.47;0.55;;;33.90;24.40;;;;;;4973997;28;20109;-69
2023/10/22 03:18:47;;;;;;;1.85;0.60;;;33.90;25.00;;;;;;4974378;28;20027;-69
2023/10/22 03:21:28;;;;;;;3.50;0.85;;;33.90;24.50;;;;;;4953013;28;20097;-69
2023/10/22 03:23:55;;;;;;;4.32;0.40;;;33.90;24.90;;;;;;4953787;29;20019;-69
2023/10/22 03:26:22;;;;;;;1.00;0.45;;;33.50;24.40;;;;;;4936772;29;20097;-69
2023/10/22 03:28:51;;;;;;;4.57;0.57;;;33.60;25.00;;;;;;4950052;29;20054;-69
2023/10/22 03:31:19;;;;;;;3.17;0.50;;;33.60;24.00;;;;;;4947362;28;20039;-69
2023/10/22 03:33:47;;;;;;;4.50;0.50;;;33.50;24.80;;;;;;4944738;29;20416;-69
2023/10/22 03:36:15;;;;;;;2.33;0.30;;;33.60;24.30;;;;;;4939308;28;20026;-69
2023/10/22 03:38:43;;;;;;;2.60;0.60;;;33.40;24.70;;;;;;4949577;29;20028;-69
2023/10/22 03:41:10;;;;;;;3.83;0.88;;;33.40;24.70;;;;;;4954810;28;20046;-69
2023/10/22 03:43:38;;;;;;;2.05;0.55;;;33.50;24.70;;;;;;4944519;29;20032;-69
2023/10/22 03:46:05;;;;;;;1.35;0.50;;;33.50;25.30;;;;;;4934429;29;20028;-69
2023/10/22 03:48:33;;;;;;;2.67;0.40;;;33.60;24.60;;;;;;4947484;28;20019;-69
2023/10/22 03:51:00;;;;;;;2.28;0.43;;;33.50;24.20;;;;;;4953419;28;20037;-69
2023/10/22 03:53:27;;;;;;;1.95;0.38;;;33.30;24.60;;;;;;4952219;29;20082;-69
2023/10/22 03:55:55;;;;;;;5.80;0.60;;;33.50;25.10;;;;;;4951786;29;20027;-69
2023/10/22 03:58:23;;;;;;;2.55;0.52;;;33.60;26.20;;;;;;4947163;29;20027;-70
2023/10/22 04:00:50;;;;;;;2.70;0.65;;;33.40;25.20;;;;;;4948906;29;20376;-69
2023/10/22 04:03:18;;;;;;;2.58;0.50;;;33.40;24.70;;;;;;4945916;28;20024;-68
2023/10/22 04:05:45;;;;;;;2.75;0.70;;;33.10;25.40;;;;;;4946841;28;20032;-68
2023/10/22 04:08:12;;;;;;;2.67;0.35;;;33.30;24.90;;;;;;4947465;29;20062;-69
2023/10/22 04:10:48;;;;;;;3.15;0.77;;;33.20;24.40;;;;;;4952260;28;20031;-70
2023/10/22 04:13:16;;;;;;;3.70;0.50;;;33.40;24.90;;;;;;4945981;29;20102;-69
2023/10/22 04:15:45;;;;;;;1.50;0.30;;;33.30;24.90;;;;;;4952175;29;20035;-69
2023/10/22 04:18:14;;;;;;;3.08;0.43;;;33.30;25.10;;;;;;4944069;28;20134;-69
2023/10/22 04:20:42;;;;;;;2.65;0.32;;;33.40;25.10;;;;;;4949731;29;20030;-69
2023/10/22 04:23:10;;;;;;;1.75;0.50;;;33.20;24.60;;;;;;4957635;28;20044;-68
2023/10/22 04:25:43;;;;;;;4.05;0.30;;;33.30;24.00;;;;;;4953406;28;20042;-68
2023/10/22 04:28:12;;;;;;;1.33;0.45;;;33.30;23.80;;;;;;4965258;28;20436;-68
2023/10/22 04:30:46;;;;;;;3.03;0.52;;;33.00;23.50;;;;;;4952342;28;20030;-67
2023/10/22 04:33:13;;;;;;;2.80;0.50;;;32.70;23.50;;;;;;4953471;29;20135;-68
2023/10/22 04:35:40;;;;;;;4.13;0.93;;;32.70;23.80;;;;;;4940325;28;20027;-68
2023/10/22 04:38:08;;;;;;;0.57;0.25;;;32.50;24.10;;;;;;4938766;28;20496;-68
2023/10/22 04:40:35;;;;;;;3.22;0.60;;;32.60;23.60;;;;;;4951634;29;20027;-68
2023/10/22 04:43:03;;;;;;;2.60;0.40;;;32.60;23.60;;;;;;4953679;29;20019;-67
2023/10/22 04:45:30;;;;;;;3.65;0.40;;;32.50;23.10;;;;;;4952283;28;20035;-67
2023/10/22 04:47:58;;;;;;;4.05;0.40;;;32.10;23.00;;;;;;4936514;29;20031;-68
2023/10/22 04:50:26;;;;;;;2.33;0.38;;;31.80;23.00;;;;;;4947673;28;20039;-67
2023/10/22 04:52:53;;;;;;;1.85;0.30;;;31.70;23.30;;;;;;4938425;29;20099;-68
2023/10/22 04:55:21;;;;;;;1.75;0.20;;;31.70;23.30;;;;;;4944171;28;20118;-68
2023/10/22 04:57:49;;;;;;;2.80;0.40;;;31.60;23.70;;;;;;4941251;28;20031;-69
2023/10/22 05:00:16;;;;;;;2.38;0.40;;;31.80;23.80;;;;;;4939638;29;20058;-68
2023/10/22 05:02:44;;;;;;;1.38;0.50;;;31.60;23.90;;;;;;4950767;28;20035;-67
2023/10/22 05:05:11;;;;;;;1.35;0.38;;;31.60;24.10;;;;;;4952320;29;20114;-68
2023/10/22 05:07:39;;;;;;;2.65;0.43;;;31.50;24.40;;;;;;4938760;29;20050;-68
2023/10/22 05:10:06;;;;;;;2.08;0.50;;;31.40;23.90;;;;;;4949602;28;20027;-68
2023/10/22 05:12:34;;;;;;;5.07;0.30;;;31.40;24.20;;;;;;4953107;28;20102;-68
2023/10/22 05:15:02;;;;;;;1.85;0.43;;;31.60;24.20;;;;;;4943628;28;20035;-67
2023/10/22 05:17:29;;;;;;;2.97;0.60;;;31.50;24.90;;;;;;4939221;29;20450;-68
2023/10/22 05:19:56;;;;;;;2.47;0.57;;;31.30;24.20;;;;;;4944726;29;20031;-68
2023/10/22 05:22:24;;;;;;;3.35;0.63;;;31.30;24.30;;;;;;4951645;28;20098;-68
2023/10/22 05:24:52;;;;;;;4.38;0.50;;;31.40;24.40;;;;;;4951348;29;20353;-68
2023/10/22 05:27:19;;;;;;;2.75;0.40;;;31.50;24.60;;;;;;4931965;29;20036;-68
2023/10/22 05:29:47;;;;;;;2.38;0.40;;;31.30;24.50;;;;;;4932858;29;20027;-68
2023/10/22 05:32:17;;;;;;;3.40;0.45;;;31.40;25.00;;;;;;4933839;29;20039;-67
2023/10/22 05:34:45;;;;;;;4.43;0.60;;;31.50;25.00;;;;;;4947347;29;20138;-67
2023/10/22 05:37:12;;;;;;;4.90;0.60;;;31.30;24.80;;;;;;4941701;29;20043;-68
2023/10/22 05:39:41;;;;;;;2.90;0.68;;;31.00;25.20;;;;;;4949791;29;20031;-71
2023/10/22 05:42:08;;;;;;;1.77;0.68;;;30.90;24.90;;;;;;4951048;28;20477;-69
2023/10/22 05:44:37;;;;;;;4.28;0.50;;;30.70;24.90;;;;;;4937290;29;20123;-69
2023/10/22 05:47:05;;;;;;;4.80;0.98;;;30.60;25.10;;;;;;4953730;28;20117;-70
2023/10/22 05:49:32;;;;;;;2.78;0.50;;;30.50;25.00;;;;;;4947168;28;20090;-72
2023/10/22 05:52:00;;;;;;;2.72;0.45;;;30.50;24.50;;;;;;4937440;29;20114;-70
2023/10/22 05:54:28;;;;;;;5.47;0.65;;;30.20;24.60;;;;;;4956176;28;20031;-70
2023/10/22 05:56:59;;;;;;;3.95;0.50;;;30.10;24.30;;;;;;4955612;29;20039;-71
2023/10/22 05:59:26;;;;;;;4.63;0.50;;;30.10;24.50;;;;;;4952047;29;20114;-70
2023/10/22 06:01:54;;;;;;;2.05;0.35;;;30.00;23.70;;;;;;4937527;29;20484;-69
2023/10/22 06:04:21;;;;;;;2.13;0.20;;;30.00;23.70;;;;;;4949713;28;20038;-69
2023/10/22 06:06:48;;;;;;;1.00;0.47;;;30.00;23.60;;;;;;4955453;28;20027;-69
2023/10/22 06:09:16;;;;;;;3.75;0.60;;;29.90;23.90;;;;;;4955137;28;20031;-69
2023/10/22 06:11:43;;;;;;;2.60;0.52;;;29.90;24.00;;;;;;4956268;29;20039;-69
2023/10/22 06:14:14;;;;;;;5.43;0.55;;;30.00;24.00;;;;;;4956346;28;20043;-69
2023/10/22 06:16:41;;;;;;;3.67;0.45;;;29.90;23.60;;;;;;4953997;29;20527;-69
2023/10/22 06:19:08;;;;;;;1.10;0.50;;;29.90;23.60;;;;;;4950571;28;20042;-69
2023/10/22 06:21:36;;;;;;;1.92;0.50;;;29.80;23.50;;;;;;4955158;28;20133;-69
2023/10/22 06:24:06;;;;;;;1.52;0.47;;;29.60;23.70;;;;;;4955546;28;20035;-71
2023/10/22 06:26:34;;;;;;;1.35;0.40;;;29.60;23.70;;;;;;4955524;29;20038;-69
2023/10/22 06:29:01;;;;;;;2.25;0.40;;;29.60;23.80;;;;;;4953217;29;20122;-69
2023/10/22 06:31:36;;;;;;;1.77;0.55;;;29.50;23.60;;;;;;4952934;28;20043;-68
2023/10/22 06:34:03;;;;;;;2.42;0.50;;;29.50;23.60;;;;;;4948951;29;20098;-68
2023/10/22 06:36:30;;;;;;;1.58;0.50;;;29.30;24.00;;;;;;4948373;28;20034;-68
2023/10/22 06:39:01;;;;;;;5.45;0.80;;;29.30;23.80;;;;;;4954848;28;20062;-69
2023/10/22 06:41:28;;;;;;;1.38;0.30;;;29.30;23.80;;;;;;4948052;29;20063;-68
2023/10/22 06:43:55;;;;;;;0.93;0.40;;;29.10;23.90;;;;;;4950086;29;20437;-68
2023/10/22 06:46:23;;;;;;;2.35;0.63;;;29.00;23.60;;;;;;4955093;29;20035;-68
2023/10/22 06:48:50;;;;;;;1.75;0.30;;;29.00;23.50;;;;;;4954713;29;20067;-69
2023/10/22 06:51:18;;;;;;;2.15;0.68;;;29.00;23.80;;;;;;4943694;29;20039;-69
2023/10/22 06:53:47;;;;;;;1.45;0.30;;;28.90;23.40;;;;;;4947473;28;20031;-69
2023/10/22 06:56:15;;;;;;;1.30;0.40;;;28.70;23.50;;;;;;4955065;28;20158;-69
2023/10/22 06:58:44;;;;;;;6.93;0.85;;;28.70;23.30;;;;;;4953711;28;20031;-69
2023/10/22 07:01:13;;;;;;;3.17;0.30;;;28.60;23.30;;;;;;4938862;29;20114;-71
2023/10/22 07:03:46;;;;;;;1.70;0.30;;;28.50;23.00;;;;;;4936400;29;20428;-70
2023/10/22 07:06:17;;;;;;;2.50;0.40;;;28.50;22.60;;;;;;4936433;29;20052;-70
2023/10/22 07:08:45;;;;;;;2.15;0.32;;;28.40;22.70;;;;;;4941615;29;20024;-69
2023/10/22 07:11:12;;;;;;;2.38;0.60;;;28.30;22.90;;;;;;4939541;28;20052;-69
2023/10/22 07:13:40;;;;;;;4.22;0.50;;;28.20;23.00;;;;;;4974469;28;20035;-69
2023/10/22 07:16:12;;;;;;;2.58;0.50;;;28.10;23.40;;;;;;4953555;28;20464;-69
2023/10/22 07:18:39;;;;;;;0.98;0.30;;;28.00;23.00;;;;;;4953846;29;20032;-69
2023/10/22 07:21:08;;;;;;;1.08;0.35;;;27.90;23.10;;;;;;4954949;29;20114;-69
2023/10/22 07:23:35;;;;;;;4.50;0.90;;;27.90;23.10;;;;;;4954260;29;20134;-68
2023/10/22 07:26:03;;;;;;;0.55;0.20;;;27.80;22.90;;;;;;4950332;28;20584;-68
2023/10/22 07:28:31;;;;;;;2.35;0.30;;;27.70;23.30;;;;;;4954002;28;20132;-68
2023/10/22 07:30:58;;;;;;;3.10;0.30;;;27.60;23.20;;;;;;4954188;28;20114;-68
2023/10/22 07:33:27;;;;;;;1.00;0.43;;;27.40;23.20;;;;;;4953621;29;20116;-68
2023/10/22 07:36:04;;;;;;;3.25;0.30;;;27.30;23.30;;;;;;4943271;28;20046;-68
2023/10/22 07:38:34;;;;;;;2.10;0.40;;;27.20;23.60;;;;;;4948800;29;20039;-68
2023/10/22 07:41:01;;;;;;;2.00;0.40;;;27.00;23.80;;;;;;4939007;29;20397;-69
2023/10/22 07:43:29;;;;;;;4.28;0.60;;;27.00;24.10;;;;;;4935015;29;20036;-69
2023/10/22 07:46:01;;;;;;;2.08;0.50;;;26.80;24.00;;;;;;4944340;28;20082;-69
2023/10/22 07:48:29;;;;;;;1.35;0.32;;;26.70;24.30;;;;;;4951210;28;20125;-68
2023/10/22 07:51:16;;;;;;;2.63;0.50;;;26.50;24.50;;;;;;4941992;29;20043;-69
2023/10/22 07:53:45;;;;;;;2.00;0.20;;;26.40;24.80;;;;;;4954025;29;20094;-68
2023/10/22 07:56:18;;;;;;;1.60;0.47;;;26.20;24.90;;;;;;4954191;28;20070;-69
2023/10/22 07:58:46;;;;;;;2.08;0.50;;;26.10;25.40;;;;;;4952440;29;20026;-69
2023/10/22 08:01:13;;;;;;;3.53;0.70;;;26.00;25.90;;;;;;4951857;28;20404;-69
2023/10/22 08:03:41;;;;;;;2.05;0.50;;;25.90;26.10;;;;;;4966402;28;20023;-70
2023/10/22 08:06:08;;;;;;;1.40;0.40;;;25.80;26.30;;;;;;4972247;28;20031;-68
2023/10/22 08:08:36;;;;;;;0.82;0.30;;;25.70;26.40;;;;;;4937876;29;20111;-68
2023/10/22 08:11:07;;;;;;;4.72;0.68;;;25.60;26.50;;;;;;4943481;29;20039;-68
2023/10/22 08:13:35;;;;;;;5.82;0.65;;;25.60;26.50;;;;;;4952574;29;20099;-68
2023/10/22 08:16:06;;;;;;;1.08;0.40;;;25.40;26.60;;;;;;4945535;28;20020;-70
2023/10/22 08:18:33;;;;;;;3.30;0.63;;;25.40;26.70;;;;;;4952292;28;20035;-68
2023/10/22 08:21:08;;;;;;;1.77;0.52;;;25.40;26.80;;;;;;4964208;28;20508;-68
2023/10/22 08:23:37;;;;;;;4.53;0.60;;;25.20;26.90;;;;;;4954089;29;20464;-69
2023/10/22 08:26:05;;;;;;;1.58;0.40;;;25.00;27.00;;;;;;4953977;28;20031;-70
2023/10/22 08:28:35;;;;;;;0.77;0.30;;;24.90;27.00;;;;;;4937253;29;20354;-69
2023/10/22 08:31:02;;;;;;;3.83;0.43;;;24.70;27.20;;;;;;4932227;29;20362;-69
2023/10/22 08:33:31;;;;;;;2.65;0.55;;;24.70;27.30;;;;;;4945743;28;20476;-69
2023/10/22 08:36:08;;;;;;;2.05;0.63;;;24.50;27.70;;;;;;4946182;28;20115;-69
2023/10/22 08:38:35;;;;;;;2.47;0.57;;;24.40;27.60;;;;;;4949381;29;20106;-69
2023/10/22 08:41:06;;;;;;;1.27;0.40;;;24.40;27.80;;;;;;4953876;28;20487;-69
2023/10/22 08:43:38;;;;;;;2.00;0.68;;;24.40;27.80;;;;;;4953793;28;20030;-69
2023/10/22 08:46:06;;;;;;;6.90;0.70;;;24.40;28.00;;;;;;4950583;29;20129;-68
2023/10/22 08:48:35;;;;;;;2.50;0.32;;;24.30;28.10;;;;;;4948538;28;20031;-69
2023/10/22 08:51:03;;;;;;;4.55;0.40;;;24.20;28.30;;;;;;4950280;29;20077;-68
2023/10/22 08:53:32;;;;;;;1.45;0.38;;;24.20;28.40;;;;;;4953517;28;20031;-69
2023/10/22 08:56:01;;;;;;;3.95;0.40;;;24.10;28.60;;;;;;4946975;29;20581;-68
2023/10/22 08:58:29;;;;;;;1.63;0.40;;;24.10;28.70;;;;;;4944700;29;20042;-68
2023/10/22 09:00:56;;;;;;;1.00;0.40;;;23.90;29.00;;;;;;4952672;28;20082;-68
2023/10/22 09:03:25;;;;;;;5.65;0.60;;;23.90;29.00;;;;;;4953153;29;20529;-67
2023/10/22 09:05:53;;;;;;;2.85;0.77;;;23.90;29.20;;;;;;4949213;28;20413;-69
2023/10/22 09:08:20;;;;;;;5.95;0.88;;;23.70;29.30;;;;;;4946918;29;20035;-69
2023/10/22 09:10:52;;;;;;;1.52;0.68;;;23.60;29.50;;;;;;4958567;28;20030;-70
2023/10/22 09:13:22;;;;;;;2.13;0.50;;;23.60;29.70;;;;;;4972585;28;20542;-68
2023/10/22 09:15:55;;;;;;;4.70;0.98;;;23.60;29.80;;;;;;4967131;28;20031;-71
2023/10/22 09:18:22;;;;;;;3.88;0.70;;;23.50;30.00;;;;;;4951390;28;20031;-67
2023/10/22 09:20:50;;;;;;;4.45;0.95;;;23.50;30.10;;;;;;4946263;28;20568;-70
2023/10/22 09:23:21;;;;;;;4.28;0.70;;;23.40;30.20;;;;;;4938912;29;20989;-70
2023/10/22 09:25:56;;;;;;;2.78;1.08;;;23.40;30.50;;;;;;4948763;29;20027;-70
2023/10/22 09:28:27;;;;;;;2.30;0.80;;;23.30;30.50;;;;;;4951895;28;20759;-69
2023/10/22 09:31:01;;;;;;;3.65;1.20;;;23.20;30.90;;;;;;4944565;29;20027;-70
2023/10/22 09:33:37;;;;;;;5.30;0.80;;;23.20;31.10;;;;;;4934293;29;20090;-70
2023/10/22 09:36:07;;;;;;;3.63;0.80;;;23.10;31.00;;;;;;4936728;29;20032;-71
2023/10/22 09:38:56;;;;;;;2.10;0.68;;;23.10;31.20;;;;;;4945468;29;20520;-69
2023/10/22 09:41:31;;;;;;;1.02;0.30;;;23.00;31.50;;;;;;4950813;29;20063;-69
2023/10/22 09:44:08;;;;;;;4.07;0.70;;;22.90;31.80;;;;;;4952614;29;20476;-69
2023/10/22 09:46:35;;;;;;;4.75;0.63;;;22.80;31.90;;;;;;4943811;29;20032;-69
2023/10/22 09:49:04;;;;;;;4.47;0.90;;;22.80;32.10;;;;;;4932871;29;20148;-69
2023/10/22 09:51:39;;;;;;;2.17;0.40;;;22.80;32.20;;;;;;4942751;29;20036;-68
2023/10/22 09:54:10;;;;;;;3.92;0.80;;;22.70;32.50;;;;;;4953001;29;20078;-69
2023/10/22 09:56:51;;;;;;;2.22;0.55;;;22.60;32.60;;;;;;4950791;29;20031;-70
2023/10/22 09:59:22;;;;;;;3.35;0.60;;;22.40;32.80;;;;;;4944933;29;20123;-69
2023/10/22 10:01:51;;;;;;;1.20;0.43;;;22.40;33.10;;;;;;4951486;28;20032;-70
2023/10/22 10:04:24;;;;;;;3.35;0.70;;;22.40;33.10;;;;;;4951688;29;20042;-71
2023/10/22 10:06:53;;;;;;;2.10;0.65;;;22.40;33.20;;;;;;4948772;29;20030;-70
2023/10/22 10:09:28;;;;;;;1.27;0.50;;;22.40;33.20;;;;;;4946013;29;20065;-70
2023/10/22 10:12:01;;;;;;;1.08;0.45;;;22.20;33.60;;;;;;4953461;29;20058;-68
2023/10/22 10:14:38;;;;;;;1.73;0.47;;;22.30;33.60;;;;;;4949323;29;20052;-70
2023/10/22 10:17:05;;;;;;;2.47;0.63;;;22.00;34.30;;;;;;4934376;29;20039;-71
2023/10/22 10:19:32;;;;;;;2.55;0.60;;;21.80;34.80;;;;;;4947778;28;20314;-70
2023/10/22 10:22:00;;;;;;;5.88;0.50;;;21.60;35.10;;;;;;4952546;28;20130;-69
2023/10/22 10:24:31;;;;;;;3.10;0.73;;;21.50;35.00;;;;;;4951349;29;20090;-69
2023/10/22 10:26:59;;;;;;;2.63;0.50;;;21.50;35.30;;;;;;4950940;29;20038;-70
2023/10/22 10:29:34;;;;;;;3.20;0.60;;;21.50;35.20;;;;;;4953877;28;20106;-70
2023/10/22 10:32:16;;;;;;;5.35;0.90;;;21.60;35.30;;;;;;4948024;29;20078;-70
2023/10/22 10:34:48;;;;;;;2.33;0.50;;;21.50;35.30;;;;;;4937340;29;20036;-70
2023/10/22 10:37:17;;;;;;;2.30;0.70;;;21.60;35.30;;;;;;4937024;29;20035;-69
2023/10/22 10:39:49;;;;;;;4.32;0.63;;;21.60;35.50;;;;;;4951924;29;20038;-68
2023/10/22 10:42:36;;;;;;;3.63;0.45;;;21.70;35.40;;;;;;4949300;29;20038;-69
2023/10/22 10:45:08;;;;;;;4.25;0.77;;;21.60;35.40;;;;;;4961752;28;20471;-69
2023/10/22 10:47:39;;;;;;;2.13;0.40;;;21.50;35.80;;;;;;4954492;29;20074;-70
2023/10/22 10:50:19;;;;;;;2.50;0.60;;;21.30;36.00;;;;;;4953548;29;20027;-68
2023/10/22 10:52:49;;;;;;;4.13;0.70;;;21.10;36.40;;;;;;4948204;28;20047;-69
2023/10/22 10:55:16;;;;;;;5.45;0.80;;;21.00;37.10;;;;;;4935936;29;20058;-69
2023/10/22 10:57:46;;;;;;;3.10;0.80;;;20.90;37.80;;;;;;4953378;28;20034;-70
2023/10/22 11:00:21;;;;;;;2.65;0.45;;;20.80;37.50;;;;;;4954859;28;20070;-70
2023/10/22 11:02:56;;;;;;;4.18;0.65;;;20.70;37.50;;;;;;4945912;29;20376;-69
2023/10/22 11:05:39;;;;;;;2.30;0.63;;;20.70;37.50;;;;;;4953214;29;20054;-69
2023/10/22 11:08:22;;;;;;;5.30;0.55;;;20.60;37.80;;;;;;4952048;29;20447;-69
2023/10/22 11:10:49;;;;;;;1.80;0.40;;;20.50;38.10;;;;;;4951473;28;20042;-70
2023/10/22 11:13:27;;;;;;;4.30;0.50;;;20.40;38.40;;;;;;4950958;29;20097;-70
2023/10/22 11:16:03;;;;;;;1.92;0.50;;;20.30;38.20;;;;;;4940550;29;20039;-70
2023/10/22 11:18:30;;;;;;;3.00;0.85;;;20.20;38.90;;;;;;4949750;29;20035;-69
2023/10/22 11:20:58;;;;;;;3.50;1.42;;;20.10;39.60;;;;;;4954555;28;20035;-69
2023/10/22 11:23:26;;;;;;;1.80;0.50;;;20.00;39.80;;;;;;4948616;29;20019;-69
2023/10/22 11:25:53;;;;;;;4.07;0.68;;;19.90;39.20;;;;;;4955525;28;20027;-69
2023/10/22 11:28:23;;;;;;;1.83;0.77;;;19.80;39.50;;;;;;4961743;28;20032;-69
2023/10/22 11:30:51;;;;;;;3.88;0.85;;;19.70;41.10;;;;;;4952939;29;20027;-69
2023/10/22 11:33:31;;;;;;;2.63;0.90;;;19.70;41.00;;;;;;4951309;28;20054;-69
2023/10/22 11:36:00;;;;;;;3.88;0.50;;;19.60;41.20;;;;;;4942495;29;20059;-69
2023/10/22 11:38:27;;;;;;;4.70;0.60;;;19.50;41.50;;;;;;4940005;29;20062;-71
2023/10/22 11:40:55;;;;;;;1.80;0.50;;;19.40;42.20;;;;;;4947873;28;20050;-69
2023/10/22 11:43:26;;;;;;;2.75;0.90;;;19.40;41.90;;;;;;4957393;28;20054;-69
2023/10/22 11:45:57;;;;;;;2.15;0.75;;;19.30;41.40;;;;;;4941832;29;20516;-69
2023/10/22 11:48:29;;;;;;;1.67;0.60;;;19.30;41.50;;;;;;4944045;29;20473;-69
2023/10/22 11:50:58;;;;;;;2.55;0.50;;;19.30;41.10;;;;;;4951053;29;20038;-69
2023/10/22 11:53:39;;;;;;;3.53;0.60;;;19.20;41.40;;;;;;4945772;29;20043;-68
2023/10/22 11:56:07;;;;;;;3.45;0.82;;;19.30;41.40;;;;;;4950009;29;20081;-68
2023/10/22 11:58:34;;;;;;;3.53;0.77;;;19.20;42.10;;;;;;4947162;29;20074;-69
2023/10/22 12:01:04;;;;;;;1.80;0.40;;;19.20;41.70;;;;;;4942062;28;20131;-67
2023/10/22 12:03:31;;;;;;;5.38;0.77;;;19.10;41.80;;;;;;4950187;29;20038;-68
2023/10/22 12:05:59;;;;;;;4.70;0.90;;;19.10;42.00;;;;;;4943903;28;20699;-67
2023/10/22 12:08:27;;;;;;;3.10;0.50;;;19.00;41.70;;;;;;4950331;29;20483;-67
2023/10/22 12:10:54;;;;;;;6.45;0.77;;;19.10;41.70;;;;;;4949817;29;20039;-68
2023/10/22 12:13:22;;;;;;;4.35;0.50;;;19.20;41.30;;;;;;4941319;28;20103;-70
2023/10/22 12:15:49;;;;;;;1.00;0.47;;;19.20;41.30;;;;;;4951270;29;20035;-69
2023/10/22 12:18:17;;;;;;;2.65;0.52;;;19.10;41.80;;;;;;4950252;28;20106;-68
2023/10/22 12:20:44;;;;;;;2.88;0.57;;;19.00;43.00;;;;;;4952410;29;20031;-68
2023/10/22 12:23:12;;;;;;;2.63;0.50;;;18.90;42.70;;;;;;4954133;28;20515;-68
2023/10/22 12:25:39;;;;;;;3.58;0.73;;;18.70;42.70;;;;;;4954569;29;20030;-68
2023/10/22 12:28:07;;;;;;;4.40;0.52;;;18.60;43.00;;;;;;4952753;29;20110;-69
2023/10/22 12:30:34;;;;;;;2.25;0.60;;;18.50;44.00;;;;;;4949322;29;20020;-68
2023/10/22 12:33:02;;;;;;;2.33;0.80;;;18.40;43.70;;;;;;4934478;29;20056;-69
2023/10/22 12:35:29;;;;;;;2.22;0.60;;;18.40;44.30;;;;;;4958495;28;20026;-68
2023/10/22 12:37:57;;;;;;;1.65;0.55;;;18.30;44.30;;;;;;4960199;28;20039;-67
2023/10/22 12:40:24;;;;;;;1.90;0.57;;;18.20;43.90;;;;;;4950428;29;20387;-68
2023/10/22 12:42:51;;;;;;;1.83;0.40;;;18.10;44.30;;;;;;4949618;29;20031;-70
2023/10/22 12:45:19;;;;;;;2.03;0.70;;;18.10;44.80;;;;;;4944115;29;20111;-67
2023/10/22 12:47:46;;;;;;;2.25;0.50;;;17.90;44.90;;;;;;4944705;29;20473;-72
2023/10/22 12:50:14;;;;;;;3.22;0.60;;;17.90;45.60;;;;;;4942673;29;20038;-68
2023/10/22 12:52:41;;;;;;;2.85;0.60;;;17.80;45.90;;;;;;4952988;28;20038;-68
2023/10/22 12:55:09;;;;;;;3.33;0.77;;;17.70;46.60;;;;;;4953602;28;20053;-68